Aérodrome :
LOGIN :

S'inscrire | Disclaimer

   EN    FR    IT 

 










Légende :    VFR   VFR Marginal   IFR   IFR Intensif   IFR Très Intensif
Visi : 
Plafond : 
>= 8 km
>= 3000ft
5 à 8 km
1000 à 3000 ft
1500m à 5 km
500 à 1000 ft
800 à 1500m
200 à 500 ft
< 800m
< 200 ft
Symboles :   Orages  Brouillard  Fortes neiges  Fortes précipitations  Vent > 20 kt
SIGMETs :   Divers  Orages  Givrage  Turbulence  Onde Orograph.  Cendres Volcan.







- Altitude de l'aérodrome : 265 ft
- Voir les cartes d'approche


LFMC - Le Luc

DERNIER METAR :
  • 241530Z AUTO 09014KT CAVOK 17/09 Q1018

METARs EXPIRÉS :
  • 241500Z AUTO 09010KT CAVOK 17/09 Q1018
  • 241430Z AUTO 10012KT 9999 ////// 16/10 Q1018
  • 241400Z AUTO 09016KT 9999 FEW041 16/11 Q1018
  • 241330Z AUTO 09017KT 9999 ////// 16/11 Q1018
  • 241300Z AUTO 10018KT 070V130 9999 FEW030 SCT054 16/12 Q1018

TAF N/A
Pas de NOTAMs connus pour ce terrain.
2 SIGMETs publiés pour la FIR Marseille (LFMM) :
 
Turbulence forte
LFMM SIGMET 3 VALID 241500/241900 LFPW
LFMM MARSEILLE FIR/UIR SEV TURB FCST WI N4300 E00815 - N4215 E00400 - N4315 E00345 - N4400 E00545 SFC/FL060 MOV W 15KT NC=
Turbulence forte
LFMM SIGMET 2 VALID 241100/241500 LFPW
LFMM MARSEILLE FIR/UIR SEV TURB FCST WI N4315 E00745 - N4215 E00515 - N4300 E00445 - N4345 E00715 SFC/FL060 MOV W 15KT NC=



MET'MAP, la Météo Aéronautique d'un coup d'oeil ! - Copyright ORBIFLY Décembre 2007 - Disclaimer

ORBIFLY MET'MAP TEAM :

Programmation & Développement : Alexandra Zaïnal
Conception & Développement : Baudouin d'Aumeries
Co-Programmation & Développement : Marc-Olivier Méhu
Soutien technique & logistique : Manuel Goepfert

Contact : metmap@orbifly.com




SOURCES & CREDITS :

   NOAA